createdAt,value
2023-02-09T00:01:29.089Z,-5.93
2023-02-09T00:03:56.183Z,-5.93
2023-02-09T00:06:24.365Z,-5.95
2023-02-09T00:08:51.338Z,-5.91
2023-02-09T00:11:48.369Z,-5.95
2023-02-09T00:14:16.911Z,-5.96
2023-02-09T00:16:43.840Z,-5.99
2023-02-09T00:19:12.034Z,-5.98
2023-02-09T00:21:40.199Z,-5.98
2023-02-09T00:24:08.003Z,-6.03
2023-02-09T00:26:34.616Z,-6.07
2023-02-09T00:29:01.301Z,-6.06
2023-02-09T00:31:28.181Z,-6.06
2023-02-09T00:33:54.950Z,-6.09
2023-02-09T00:36:21.757Z,-6.07
2023-02-09T00:38:48.469Z,-6.12
2023-02-09T00:41:16.539Z,-6.16
2023-02-09T00:43:43.203Z,-6.20
2023-02-09T00:46:10.160Z,-6.22
2023-02-09T00:48:37.117Z,-6.18
2023-02-09T00:51:04.157Z,-6.21
2023-02-09T00:53:30.946Z,-6.23
2023-02-09T00:55:57.622Z,-6.27
2023-02-09T00:58:24.362Z,-6.32
2023-02-09T01:00:51.032Z,-6.31
2023-02-09T01:03:17.800Z,-6.30
2023-02-09T01:05:44.540Z,-6.27
2023-02-09T01:08:11.648Z,-6.28
2023-02-09T01:10:39.407Z,-6.29
2023-02-09T01:13:06.904Z,-6.33
2023-02-09T01:15:34.076Z,-6.39
2023-02-09T01:18:00.857Z,-6.36
2023-02-09T01:20:28.305Z,-6.32
2023-02-09T01:22:55.044Z,-6.22
2023-02-09T01:25:22.014Z,-6.28
2023-02-09T01:27:48.988Z,-6.34
2023-02-09T01:30:16.168Z,-6.41
2023-02-09T01:32:43.133Z,-6.45
2023-02-09T01:35:10.808Z,-6.50
2023-02-09T01:37:37.940Z,-6.51
2023-02-09T01:40:05.677Z,-6.49
2023-02-09T01:42:32.523Z,-6.58
2023-02-09T01:45:30.478Z,-6.58
2023-02-09T01:48:03.704Z,-6.60
2023-02-09T01:50:36.174Z,-6.56
2023-02-09T01:53:03.369Z,-6.53
2023-02-09T01:55:34.743Z,-6.52
2023-02-09T01:58:13.593Z,-6.51
2023-02-09T02:00:40.587Z,-6.47
2023-02-09T02:03:12.514Z,-6.44
2023-02-09T02:05:42.679Z,-6.45
2023-02-09T02:08:26.509Z,-6.46
2023-02-09T02:10:54.252Z,-6.46
2023-02-09T02:13:21.400Z,-6.50
2023-02-09T02:16:06.232Z,-6.58
2023-02-09T02:18:45.781Z,-6.66
2023-02-09T02:21:24.788Z,-6.67
2023-02-09T02:24:21.116Z,-6.71
2023-02-09T02:26:58.352Z,-6.72
2023-02-09T02:29:43.828Z,-6.72
2023-02-09T02:32:36.780Z,-6.71
2023-02-09T02:35:26.703Z,-6.64
2023-02-09T02:38:14.554Z,-6.61
2023-02-09T02:41:22.707Z,-6.59
2023-02-09T02:44:05.772Z,-6.64
2023-02-09T02:46:38.137Z,-6.69
2023-02-09T02:49:11.924Z,-6.79
2023-02-09T02:51:43.184Z,-6.81
2023-02-09T02:54:16.573Z,-6.91
2023-02-09T02:56:47.514Z,-6.93
2023-02-09T02:59:18.909Z,-6.95
2023-02-09T03:02:02.171Z,-6.99
2023-02-09T03:04:32.601Z,-6.93
2023-02-09T03:06:59.416Z,-6.90
2023-02-09T03:09:26.101Z,-6.88
2023-02-09T03:11:57.563Z,-6.88
2023-02-09T03:14:41.189Z,-6.91
2023-02-09T03:17:14.174Z,-6.92
2023-02-09T03:19:46.727Z,-6.94
2023-02-09T03:22:30.854Z,-6.99
2023-02-09T03:25:31.314Z,-6.95
2023-02-09T03:28:04.548Z,-6.98
2023-02-09T03:30:33.667Z,-6.99
2023-02-09T03:33:01.734Z,-6.97
2023-02-09T03:35:36.319Z,-6.93
2023-02-09T03:38:07.437Z,-6.85
2023-02-09T03:40:34.933Z,-6.84
2023-02-09T03:43:01.898Z,-7.01
2023-02-09T03:45:28.601Z,-7.10
2023-02-09T03:47:55.226Z,-7.15
2023-02-09T03:50:21.890Z,-7.24
2023-02-09T03:52:48.530Z,-7.47
2023-02-09T03:55:15.264Z,-7.62
2023-02-09T03:57:42.075Z,-7.62
2023-02-09T04:00:09.763Z,-7.65
2023-02-09T04:02:41.707Z,-7.58
2023-02-09T04:05:08.889Z,-7.58
2023-02-09T04:07:35.705Z,-7.58
2023-02-09T04:10:03.449Z,-7.57
2023-02-09T04:12:30.157Z,-7.50
2023-02-09T04:14:56.946Z,-7.35
2023-02-09T04:17:23.602Z,-7.31
2023-02-09T04:19:50.272Z,-7.40
2023-02-09T04:22:16.910Z,-7.46
2023-02-09T04:24:44.203Z,-7.49
2023-02-09T04:27:10.844Z,-7.44
2023-02-09T04:29:37.499Z,-7.29
2023-02-09T04:32:04.401Z,-7.17
2023-02-09T04:34:31.082Z,-7.19
2023-02-09T04:36:57.749Z,-7.30
2023-02-09T04:39:24.488Z,-7.45
2023-02-09T04:41:51.078Z,-7.59
2023-02-09T04:44:17.792Z,-7.69
2023-02-09T04:46:45.768Z,-7.89
2023-02-09T04:49:12.778Z,-7.99
2023-02-09T04:51:39.410Z,-8.00
2023-02-09T04:54:06.067Z,-8.08
2023-02-09T04:56:32.714Z,-8.11
2023-02-09T04:59:18.002Z,-8.36
2023-02-09T05:01:44.628Z,-8.47
2023-02-09T05:04:11.301Z,-8.59
2023-02-09T05:06:37.938Z,-8.71
2023-02-09T05:09:04.623Z,-8.54
2023-02-09T05:11:31.354Z,-8.48
2023-02-09T05:13:58.092Z,-8.51
2023-02-09T05:16:24.761Z,-8.53
2023-02-09T05:18:51.554Z,-8.54
2023-02-09T05:21:18.187Z,-8.54
2023-02-09T05:23:44.833Z,-8.55
2023-02-09T05:26:11.461Z,-8.46
2023-02-09T05:28:38.100Z,-8.40
2023-02-09T05:31:04.902Z,-8.34
2023-02-09T05:33:31.641Z,-8.45
2023-02-09T05:35:58.322Z,-8.49
2023-02-09T05:38:25.125Z,-8.51
2023-02-09T05:40:51.783Z,-8.49
2023-02-09T05:43:19.078Z,-8.43
2023-02-09T05:45:46.709Z,-8.43
2023-02-09T05:48:13.511Z,-8.40
2023-02-09T05:50:40.177Z,-8.39
2023-02-09T05:53:07.807Z,-8.41
2023-02-09T05:55:34.460Z,-8.40
2023-02-09T05:58:01.072Z,-8.35
2023-02-09T06:00:29.758Z,-8.34
2023-02-09T06:02:57.021Z,-8.38
2023-02-09T06:05:23.845Z,-8.43
2023-02-09T06:07:51.045Z,-8.37
2023-02-09T06:10:18.820Z,-8.42
2023-02-09T06:12:46.110Z,-8.52
2023-02-09T06:15:13.583Z,-8.61
2023-02-09T06:17:40.216Z,-8.61
2023-02-09T06:20:07.166Z,-8.50
2023-02-09T06:22:34.210Z,-8.50
2023-02-09T06:25:00.910Z,-8.58
2023-02-09T06:27:27.682Z,-8.62
2023-02-09T06:29:54.394Z,-8.66
2023-02-09T06:32:21.017Z,-8.57
2023-02-09T06:34:47.616Z,-8.57
2023-02-09T06:37:14.262Z,-8.64
2023-02-09T06:39:40.916Z,-8.70
2023-02-09T06:42:07.841Z,-8.83
2023-02-09T06:44:34.472Z,-8.94
2023-02-09T06:47:01.060Z,-8.94
2023-02-09T06:49:27.745Z,-8.81
2023-02-09T06:51:54.493Z,-8.69
2023-02-09T06:54:21.990Z,-8.67
2023-02-09T06:56:48.814Z,-8.55
2023-02-09T06:59:15.621Z,-8.50
2023-02-09T07:01:42.370Z,-8.45
2023-02-09T07:04:09.048Z,-8.44
2023-02-09T07:06:35.809Z,-8.40
2023-02-09T07:09:02.534Z,-8.38
2023-02-09T07:11:30.565Z,-8.34
2023-02-09T07:13:57.331Z,-8.34
2023-02-09T07:16:24.316Z,-8.28
2023-02-09T07:18:51.065Z,-8.11
2023-02-09T07:21:19.993Z,-7.79
2023-02-09T07:23:47.720Z,-7.48
2023-02-09T07:26:17.023Z,-7.07
2023-02-09T07:28:44.095Z,-6.76
2023-02-09T07:31:12.803Z,-6.42
2023-02-09T07:33:39.729Z,-6.26
2023-02-09T07:36:09.592Z,-6.27
2023-02-09T07:38:37.010Z,-6.33
2023-02-09T07:41:05.500Z,-6.33
2023-02-09T07:43:33.298Z,-6.41
2023-02-09T07:46:01.595Z,-6.25
2023-02-09T07:48:28.647Z,-5.94
2023-02-09T07:50:55.710Z,-5.72
2023-02-09T07:53:22.475Z,-5.62
2023-02-09T07:55:49.177Z,-5.51
2023-02-09T07:58:18.331Z,-5.42
2023-02-09T08:00:46.244Z,-5.29
2023-02-09T08:03:15.215Z,-5.27
2023-02-09T08:05:48.708Z,-5.04
2023-02-09T08:08:15.495Z,-4.75
2023-02-09T08:10:42.958Z,-4.53
2023-02-09T08:13:10.359Z,-4.34
2023-02-09T08:15:40.048Z,-4.24
2023-02-09T08:18:16.111Z,-4.20
2023-02-09T08:20:44.165Z,-4.01
2023-02-09T08:23:22.713Z,-3.96
2023-02-09T08:25:51.631Z,-3.99
2023-02-09T08:28:31.837Z,-3.91
2023-02-09T08:31:05.230Z,-3.74
2023-02-09T08:33:32.090Z,-3.76
2023-02-09T08:35:58.890Z,-3.69
2023-02-09T08:38:25.577Z,-3.59
2023-02-09T08:40:52.198Z,-3.26
2023-02-09T08:43:18.851Z,-2.92
2023-02-09T08:45:45.858Z,-2.55
2023-02-09T08:48:13.001Z,-2.32
2023-02-09T08:50:40.173Z,-2.14
2023-02-09T08:53:07.059Z,-2.18
2023-02-09T08:55:34.547Z,-2.18
2023-02-09T08:58:01.255Z,-2.11
2023-02-09T09:00:28.468Z,-1.94
2023-02-09T09:02:55.150Z,-1.91
2023-02-09T09:05:21.820Z,-1.89
2023-02-09T09:07:48.483Z,-1.85
2023-02-09T09:10:15.233Z,-1.75
2023-02-09T09:12:41.929Z,-1.66
2023-02-09T09:15:08.969Z,-1.69
2023-02-09T09:17:35.832Z,-1.48
2023-02-09T09:20:02.497Z,-1.48
2023-02-09T09:22:29.233Z,-1.46
2023-02-09T09:24:55.906Z,-1.18
2023-02-09T09:27:22.600Z,-0.86
2023-02-09T09:29:49.686Z,-0.43
2023-02-09T09:32:16.602Z,0.00
2023-02-09T09:34:43.586Z,0.41
2023-02-09T09:37:10.190Z,0.64
2023-02-09T09:39:36.808Z,0.51
2023-02-09T09:42:06.121Z,0.40
2023-02-09T09:44:43.511Z,0.57
2023-02-09T09:47:19.083Z,0.52
2023-02-09T09:49:46.333Z,0.65
2023-02-09T09:52:29.368Z,0.98
2023-02-09T09:54:57.944Z,0.83
2023-02-09T09:57:27.575Z,1.18
2023-02-09T09:59:56.172Z,1.17
2023-02-09T10:02:31.395Z,1.23
2023-02-09T10:05:14.381Z,1.40
2023-02-09T10:07:43.102Z,1.51
2023-02-09T10:10:23.394Z,1.38
2023-02-09T10:12:53.327Z,1.23
2023-02-09T10:15:32.711Z,1.45
2023-02-09T10:18:00.402Z,1.42
2023-02-09T10:20:50.245Z,1.77
2023-02-09T10:23:18.185Z,1.85
2023-02-09T10:25:47.899Z,2.01
2023-02-09T10:28:23.166Z,2.16
2023-02-09T10:30:56.443Z,2.22
2023-02-09T10:33:23.297Z,2.50
2023-02-09T10:35:53.737Z,2.04
2023-02-09T10:38:24.137Z,1.76
2023-02-09T10:40:51.627Z,1.94
2023-02-09T10:43:34.465Z,2.03
2023-02-09T10:46:10.389Z,2.08
2023-02-09T10:48:43.036Z,2.08
2023-02-09T10:51:29.084Z,2.70
2023-02-09T10:53:55.908Z,2.91
2023-02-09T10:56:29.394Z,2.97
2023-02-09T10:59:01.660Z,3.01
2023-02-09T11:01:33.072Z,3.21
2023-02-09T11:04:06.068Z,3.46
2023-02-09T11:06:56.473Z,3.72
2023-02-09T11:09:44.826Z,4.03
2023-02-09T11:12:12.589Z,4.06
2023-02-09T11:14:41.964Z,4.14
2023-02-09T11:17:11.612Z,4.33
2023-02-09T11:19:44.322Z,4.34
2023-02-09T11:22:28.963Z,4.30
2023-02-09T11:25:25.147Z,4.47
2023-02-09T11:28:10.632Z,4.56
2023-02-09T11:31:13.029Z,4.56
2023-02-09T11:33:45.835Z,4.31
2023-02-09T11:36:38.497Z,4.41
2023-02-09T11:39:10.324Z,4.67
2023-02-09T11:42:02.077Z,4.83
2023-02-09T11:44:57.685Z,5.04
2023-02-09T11:47:31.041Z,4.96
2023-02-09T11:50:02.001Z,4.93
2023-02-09T11:52:37.598Z,5.01
2023-02-09T11:55:22.632Z,4.83
2023-02-09T11:57:54.691Z,5.03
2023-02-09T12:00:25.546Z,5.32
2023-02-09T12:02:56.714Z,5.18
2023-02-09T12:05:24.520Z,4.91
2023-02-09T12:08:34.517Z,5.09
2023-02-09T12:11:17.126Z,5.41
2023-02-09T12:13:50.484Z,5.29
2023-02-09T12:16:32.038Z,5.31
2023-02-09T12:18:58.889Z,5.36
2023-02-09T12:21:34.636Z,5.44
2023-02-09T12:24:01.916Z,5.49
2023-02-09T12:26:42.904Z,5.55
2023-02-09T12:29:35.289Z,5.41
2023-02-09T12:32:04.892Z,5.55
2023-02-09T12:34:42.170Z,5.44
2023-02-09T12:37:14.826Z,5.50
2023-02-09T12:40:07.886Z,5.42
2023-02-09T12:42:43.096Z,5.37
2023-02-09T12:45:34.849Z,5.27
2023-02-09T12:48:07.780Z,5.57
2023-02-09T12:50:43.794Z,5.64
2023-02-09T12:53:22.716Z,5.72
2023-02-09T12:56:09.033Z,5.66
2023-02-09T12:58:44.891Z,5.62
2023-02-09T13:01:15.118Z,5.47
2023-02-09T13:03:56.388Z,5.65
2023-02-09T13:06:35.360Z,5.71
2023-02-09T13:09:07.552Z,5.64
2023-02-09T13:12:05.705Z,5.69
2023-02-09T13:14:32.796Z,5.63
2023-02-09T13:17:08.438Z,5.85
2023-02-09T13:19:52.861Z,5.83
2023-02-09T13:22:41.034Z,5.72
2023-02-09T13:25:33.452Z,5.22
2023-02-09T13:28:27.524Z,4.74
2023-02-09T13:30:54.243Z,4.25
2023-02-09T13:33:30.799Z,4.43
2023-02-09T13:36:00.506Z,4.02
2023-02-09T13:38:31.316Z,3.70
2023-02-09T13:40:58.521Z,3.35
2023-02-09T13:43:34.837Z,3.80
2023-02-09T13:46:02.520Z,3.89
2023-02-09T13:48:36.637Z,3.71
2023-02-09T13:51:15.822Z,3.35
2023-02-09T13:53:56.358Z,3.37
2023-02-09T13:56:23.644Z,3.07
2023-02-09T13:58:50.789Z,2.78
2023-02-09T14:01:26.399Z,2.89
2023-02-09T14:04:17.472Z,3.02
2023-02-09T14:06:58.334Z,2.92
2023-02-09T14:09:39.018Z,2.83
2023-02-09T14:12:15.367Z,2.67
2023-02-09T14:15:07.907Z,2.78
2023-02-09T14:17:35.360Z,2.73
2023-02-09T14:20:03.319Z,2.61
2023-02-09T14:22:33.635Z,2.55
2023-02-09T14:25:00.528Z,2.50
2023-02-09T14:27:29.600Z,2.33
2023-02-09T14:29:56.670Z,2.35
2023-02-09T14:32:45.341Z,2.54
2023-02-09T14:35:19.910Z,2.70
2023-02-09T14:37:48.590Z,2.57
2023-02-09T14:40:23.371Z,2.36
2023-02-09T14:43:00.555Z,2.23
2023-02-09T14:45:27.207Z,2.23
2023-02-09T14:47:53.901Z,2.20
2023-02-09T14:50:23.588Z,2.28
2023-02-09T14:52:54.406Z,2.33
2023-02-09T14:55:25.549Z,2.30
2023-02-09T14:57:52.407Z,2.29
2023-02-09T15:00:22.433Z,2.33
2023-02-09T15:02:50.432Z,2.46
2023-02-09T15:05:17.936Z,2.52
2023-02-09T15:07:48.192Z,2.55
2023-02-09T15:10:32.375Z,2.58
2023-02-09T15:13:00.529Z,2.36
2023-02-09T15:15:27.282Z,2.11
2023-02-09T15:17:55.331Z,2.04
2023-02-09T15:20:26.438Z,1.99
2023-02-09T15:22:54.679Z,1.89
2023-02-09T15:25:22.644Z,1.95
2023-02-09T15:27:57.479Z,1.97
2023-02-09T15:30:27.634Z,1.92
2023-02-09T15:32:54.356Z,1.90
2023-02-09T15:35:25.786Z,1.84
2023-02-09T15:38:00.340Z,1.79
2023-02-09T15:40:52.576Z,1.72
2023-02-09T15:43:39.954Z,1.58
2023-02-09T15:46:27.468Z,1.42
2023-02-09T15:48:54.423Z,1.22
2023-02-09T15:51:23.406Z,1.14
2023-02-09T15:53:50.108Z,0.96
2023-02-09T15:56:16.735Z,0.88
2023-02-09T15:58:45.390Z,0.78
2023-02-09T16:01:14.997Z,0.61
2023-02-09T16:03:41.636Z,0.57
2023-02-09T16:06:15.959Z,0.53
2023-02-09T16:08:43.539Z,0.45
2023-02-09T16:11:24.247Z,0.42
2023-02-09T16:13:51.233Z,0.37
2023-02-09T16:16:18.112Z,0.25
2023-02-09T16:18:46.748Z,0.17
2023-02-09T16:21:23.556Z,0.18
2023-02-09T16:23:52.571Z,0.12
2023-02-09T16:26:19.922Z,0.05
2023-02-09T16:28:47.447Z,0.00
2023-02-09T16:31:14.307Z,-0.03
2023-02-09T16:33:43.000Z,-0.08
2023-02-09T16:36:28.373Z,-0.07
2023-02-09T16:38:55.038Z,-0.18
2023-02-09T16:41:40.514Z,-0.19
2023-02-09T16:44:33.645Z,-0.24
2023-02-09T16:47:01.386Z,-0.33
2023-02-09T16:49:31.165Z,-0.41
2023-02-09T16:52:01.057Z,-0.41
2023-02-09T16:54:29.660Z,-0.50
2023-02-09T16:56:56.645Z,-0.55
2023-02-09T16:59:23.534Z,-0.59
2023-02-09T17:01:50.387Z,-0.60
2023-02-09T17:04:17.370Z,-0.65
2023-02-09T17:06:45.225Z,-0.59
2023-02-09T17:09:16.200Z,-0.60
2023-02-09T17:11:42.895Z,-0.71
2023-02-09T17:14:09.649Z,-0.75
2023-02-09T17:16:38.683Z,-0.81
2023-02-09T17:19:12.353Z,-0.75
2023-02-09T17:21:40.287Z,-0.79
2023-02-09T17:24:14.237Z,-0.82
2023-02-09T17:26:40.925Z,-0.91
2023-02-09T17:29:09.243Z,-0.86
2023-02-09T17:31:51.943Z,-0.94
2023-02-09T17:34:20.649Z,-1.01
2023-02-09T17:36:47.435Z,-1.06
2023-02-09T17:39:14.204Z,-1.14
2023-02-09T17:41:46.500Z,-1.12
2023-02-09T17:44:39.166Z,-1.09
2023-02-09T17:47:17.683Z,-1.16
2023-02-09T17:49:44.728Z,-1.20
2023-02-09T17:52:19.250Z,-1.31
2023-02-09T17:54:46.575Z,-1.37
2023-02-09T17:57:17.380Z,-1.41
2023-02-09T17:59:44.105Z,-1.48
2023-02-09T18:02:15.856Z,-1.66
2023-02-09T18:04:42.908Z,-1.67
2023-02-09T18:07:10.452Z,-1.51
2023-02-09T18:09:37.249Z,-1.53
2023-02-09T18:12:13.655Z,-1.48
2023-02-09T18:14:40.315Z,-1.51
2023-02-09T18:17:06.974Z,-1.60
2023-02-09T18:19:33.675Z,-1.58
2023-02-09T18:22:02.044Z,-1.59
2023-02-09T18:24:32.077Z,-1.66
2023-02-09T18:26:59.368Z,-1.68
2023-02-09T18:29:29.458Z,-1.75
2023-02-09T18:31:58.554Z,-1.73
2023-02-09T18:34:26.047Z,-1.72
2023-02-09T18:36:52.658Z,-1.79
2023-02-09T18:39:19.342Z,-1.85
2023-02-09T18:41:48.395Z,-1.87
2023-02-09T18:44:15.022Z,-1.94
2023-02-09T18:46:42.786Z,-1.99
2023-02-09T18:49:12.237Z,-2.15
2023-02-09T18:51:38.926Z,-2.16
2023-02-09T18:54:05.782Z,-2.18
2023-02-09T18:56:32.612Z,-2.16
2023-02-09T18:58:59.257Z,-2.23
2023-02-09T19:01:26.033Z,-2.28
2023-02-09T19:03:54.203Z,-2.25
2023-02-09T19:06:21.955Z,-2.26
2023-02-09T19:08:50.451Z,-2.33
2023-02-09T19:11:19.954Z,-2.27
2023-02-09T19:14:06.731Z,-2.32
2023-02-09T19:16:34.092Z,-2.31
2023-02-09T19:19:00.882Z,-2.25
2023-02-09T19:21:28.244Z,-2.23
2023-02-09T19:23:54.931Z,-2.20
2023-02-09T19:26:21.588Z,-2.21
2023-02-09T19:28:48.691Z,-2.27
2023-02-09T19:31:18.374Z,-2.33
2023-02-09T19:33:45.142Z,-2.46
2023-02-09T19:36:12.398Z,-2.48
2023-02-09T19:38:39.018Z,-2.56
2023-02-09T19:41:12.506Z,-2.59
2023-02-09T19:43:42.390Z,-2.70
2023-02-09T19:46:10.305Z,-2.72
2023-02-09T19:48:40.301Z,-2.62
2023-02-09T19:51:07.805Z,-2.63
2023-02-09T19:53:35.161Z,-2.69
2023-02-09T19:56:02.337Z,-2.77
2023-02-09T19:58:29.156Z,-2.70
2023-02-09T20:00:56.194Z,-2.68
2023-02-09T20:03:24.183Z,-2.60
2023-02-09T20:05:51.469Z,-2.60
2023-02-09T20:08:19.907Z,-2.67
2023-02-09T20:10:47.155Z,-2.66
2023-02-09T20:13:15.293Z,-2.64
2023-02-09T20:15:43.695Z,-2.60
2023-02-09T20:18:12.054Z,-2.62
2023-02-09T20:20:41.454Z,-2.64
2023-02-09T20:23:08.563Z,-2.81
2023-02-09T20:25:35.282Z,-2.92
2023-02-09T20:28:01.989Z,-2.95
2023-02-09T20:30:28.631Z,-2.92
2023-02-09T20:32:55.255Z,-2.99
2023-02-09T20:35:21.993Z,-3.06
2023-02-09T20:37:48.649Z,-3.11
2023-02-09T20:40:15.473Z,-3.15
2023-02-09T20:43:00.822Z,-3.23
2023-02-09T20:45:46.162Z,-3.33
2023-02-09T20:48:13.817Z,-3.29
2023-02-09T20:50:40.511Z,-3.22
2023-02-09T20:53:07.200Z,-3.36
2023-02-09T20:55:34.012Z,-3.40
2023-02-09T20:58:00.709Z,-3.42
2023-02-09T21:00:27.770Z,-3.40
2023-02-09T21:02:54.470Z,-3.50
2023-02-09T21:05:21.141Z,-3.56
2023-02-09T21:07:50.340Z,-3.56
2023-02-09T21:10:17.025Z,-3.53
2023-02-09T21:12:43.765Z,-3.52
2023-02-09T21:15:10.398Z,-3.68
2023-02-09T21:17:37.197Z,-3.60
2023-02-09T21:20:06.015Z,-3.70
2023-02-09T21:22:32.689Z,-3.82
2023-02-09T21:24:59.439Z,-3.81
2023-02-09T21:27:26.278Z,-3.77
2023-02-09T21:29:53.025Z,-3.79
2023-02-09T21:32:19.748Z,-3.80
2023-02-09T21:34:46.809Z,-3.72
2023-02-09T21:37:14.108Z,-3.65
2023-02-09T21:39:41.355Z,-3.58
2023-02-09T21:42:28.807Z,-3.55
2023-02-09T21:44:55.816Z,-3.47
2023-02-09T21:47:30.589Z,-3.38
2023-02-09T21:49:57.566Z,-3.43
2023-02-09T21:52:24.794Z,-3.40
2023-02-09T21:54:52.113Z,-3.39
2023-02-09T21:57:18.863Z,-3.40
2023-02-09T21:59:45.793Z,-3.46
2023-02-09T22:02:17.728Z,-3.57
2023-02-09T22:04:45.756Z,-3.72
2023-02-09T22:07:13.506Z,-3.74
2023-02-09T22:09:40.824Z,-3.87
2023-02-09T22:12:07.859Z,-3.92
2023-02-09T22:14:34.609Z,-4.01
2023-02-09T22:17:01.353Z,-4.01
2023-02-09T22:19:28.186Z,-3.89
2023-02-09T22:21:57.689Z,-3.88
2023-02-09T22:24:24.988Z,-3.92
2023-02-09T22:26:51.648Z,-3.97
2023-02-09T22:29:18.786Z,-3.88
2023-02-09T22:31:45.818Z,-3.81
2023-02-09T22:34:12.919Z,-3.80
2023-02-09T22:36:39.903Z,-3.87
2023-02-09T22:39:07.617Z,-3.76
2023-02-09T22:41:35.081Z,-3.67
2023-02-09T22:44:07.304Z,-3.64
2023-02-09T22:46:39.103Z,-3.69
2023-02-09T22:49:15.564Z,-3.74
2023-02-09T22:51:42.379Z,-3.78
2023-02-09T22:54:09.721Z,-3.83
2023-02-09T22:56:36.510Z,-3.89
2023-02-09T22:59:03.558Z,-3.92
2023-02-09T23:01:30.543Z,-4.00
2023-02-09T23:03:57.712Z,-4.00
2023-02-09T23:06:27.421Z,-4.03
2023-02-09T23:08:56.101Z,-4.12
2023-02-09T23:11:23.364Z,-4.05
2023-02-09T23:14:00.456Z,-4.05
2023-02-09T23:16:33.993Z,-4.19
2023-02-09T23:19:06.402Z,-4.09
2023-02-09T23:21:36.485Z,-4.10
2023-02-09T23:24:03.716Z,-4.15
2023-02-09T23:26:30.409Z,-4.12
2023-02-09T23:28:59.548Z,-4.13
2023-02-09T23:31:27.048Z,-4.13
2023-02-09T23:33:54.219Z,-4.19
2023-02-09T23:36:25.820Z,-4.24
2023-02-09T23:38:54.785Z,-4.34
2023-02-09T23:41:22.489Z,-4.33
2023-02-09T23:43:49.887Z,-4.21
2023-02-09T23:46:19.705Z,-4.15
2023-02-09T23:48:46.941Z,-4.10
2023-02-09T23:51:18.349Z,-4.09
2023-02-09T23:53:46.650Z,-4.07
2023-02-09T23:56:16.053Z,-4.12
2023-02-09T23:58:45.928Z,-4.14
